createdAt,value
2019-05-11T00:01:56.568Z,12.76
2019-05-11T00:04:25.153Z,12.58
2019-05-11T00:06:53.672Z,12.55
2019-05-11T00:09:22.719Z,12.61
2019-05-11T00:11:51.311Z,12.66
2019-05-11T00:14:19.877Z,12.69
2019-05-11T00:16:48.454Z,12.61
2019-05-11T00:19:17.188Z,12.47
2019-05-11T00:21:45.922Z,12.43
2019-05-11T00:24:14.474Z,12.48
2019-05-11T00:26:43.125Z,12.53
2019-05-11T00:29:11.783Z,12.56
2019-05-11T00:31:40.395Z,12.63
2019-05-11T00:34:09.119Z,12.69
2019-05-11T00:36:37.626Z,12.69
2019-05-11T00:39:07.626Z,12.74
2019-05-11T00:41:36.153Z,12.74
2019-05-11T00:44:04.870Z,12.78
2019-05-11T00:46:33.574Z,12.84
2019-05-11T00:49:02.111Z,12.87
2019-05-11T00:51:30.744Z,12.88
2019-05-11T00:53:59.470Z,12.88
2019-05-11T00:56:28.065Z,12.90
2019-05-11T00:58:56.833Z,12.89
2019-05-11T01:01:25.466Z,12.77
2019-05-11T01:03:54.102Z,12.75
2019-05-11T01:06:22.630Z,12.71
2019-05-11T01:08:51.171Z,12.77
2019-05-11T01:11:19.695Z,12.84
2019-05-11T01:13:48.522Z,12.90
2019-05-11T01:16:17.007Z,12.72
2019-05-11T01:18:45.636Z,12.79
2019-05-11T01:21:14.306Z,12.85
2019-05-11T01:23:42.809Z,12.80
2019-05-11T01:26:11.329Z,12.77
2019-05-11T01:28:39.913Z,12.71
2019-05-11T01:31:08.487Z,12.76
2019-05-11T01:33:36.984Z,12.76
2019-05-11T01:36:05.701Z,12.76
2019-05-11T01:38:34.266Z,12.71
2019-05-11T01:41:03.263Z,12.75
2019-05-11T01:43:31.867Z,12.76
2019-05-11T01:46:00.414Z,12.77
2019-05-11T01:48:29.043Z,12.78
2019-05-11T01:50:57.586Z,12.78
2019-05-11T01:53:26.172Z,12.68
2019-05-11T01:55:54.766Z,12.63
2019-05-11T01:58:23.415Z,12.50
2019-05-11T02:00:51.998Z,12.44
2019-05-11T02:03:20.554Z,12.40
2019-05-11T02:05:51.670Z,12.35
2019-05-11T02:08:19.433Z,12.37
2019-05-11T02:10:48.013Z,12.44
2019-05-11T02:13:16.662Z,12.50
2019-05-11T02:15:45.228Z,12.62
2019-05-11T02:18:13.848Z,12.62
2019-05-11T02:20:42.366Z,12.54
2019-05-11T02:23:10.916Z,12.50
2019-05-11T02:25:42.024Z,12.46
2019-05-11T02:28:10.601Z,12.46
2019-05-11T02:30:39.129Z,12.47
2019-05-11T02:33:07.638Z,12.45
2019-05-11T02:35:36.181Z,12.43
2019-05-11T02:38:04.882Z,12.39
2019-05-11T02:40:33.563Z,12.33
2019-05-11T02:43:02.012Z,12.31
2019-05-11T02:45:41.817Z,12.27
2019-05-11T02:48:10.807Z,12.20
2019-05-11T02:50:39.570Z,12.07
2019-05-11T02:53:08.885Z,12.02
2019-05-11T02:55:38.798Z,12.02
2019-05-11T02:58:09.320Z,11.90
2019-05-11T03:00:43.732Z,11.80
2019-05-11T03:03:11.896Z,11.75
2019-05-11T03:05:40.522Z,11.70
2019-05-11T03:08:09.061Z,11.69
2019-05-11T03:10:37.517Z,11.68
2019-05-11T03:13:05.994Z,11.58
2019-05-11T03:15:34.527Z,11.57
2019-05-11T03:18:03.017Z,11.60
2019-05-11T03:20:31.444Z,11.62
2019-05-11T03:22:59.896Z,11.62
2019-05-11T03:25:28.413Z,11.61
2019-05-11T03:27:56.900Z,11.59
2019-05-11T03:30:25.438Z,11.63
2019-05-11T03:32:53.947Z,11.65
2019-05-11T03:35:22.360Z,11.67
2019-05-11T03:37:50.845Z,11.70
2019-05-11T03:40:19.712Z,11.72
2019-05-11T03:42:48.205Z,11.68
2019-05-11T03:45:17.684Z,11.55
2019-05-11T03:47:46.188Z,11.52
2019-05-11T03:50:14.759Z,11.51
2019-05-11T03:52:43.312Z,11.51
2019-05-11T03:55:12.332Z,11.49
2019-05-11T03:57:40.770Z,11.46
2019-05-11T04:00:09.745Z,11.48
2019-05-11T04:02:38.213Z,11.35
2019-05-11T04:05:06.719Z,11.40
2019-05-11T04:07:35.167Z,11.37
2019-05-11T04:10:04.863Z,11.39
2019-05-11T04:12:35.519Z,11.44
2019-05-11T04:15:04.623Z,11.47
2019-05-11T04:17:33.063Z,11.50
2019-05-11T04:20:01.522Z,11.50
2019-05-11T04:22:30.065Z,11.39
2019-05-11T04:24:58.492Z,11.38
2019-05-11T04:27:26.980Z,11.32
2019-05-11T04:29:55.440Z,11.30
2019-05-11T04:32:24.274Z,11.34
2019-05-11T04:34:52.720Z,11.35
2019-05-11T04:37:21.181Z,11.47
2019-05-11T04:39:49.697Z,11.53
2019-05-11T04:42:18.169Z,11.60
2019-05-11T04:44:46.640Z,11.61
2019-05-11T04:47:15.082Z,11.65
2019-05-11T04:49:43.544Z,11.71
2019-05-11T04:52:12.138Z,11.75
2019-05-11T04:54:40.587Z,11.61
2019-05-11T04:57:09.043Z,11.64
2019-05-11T04:59:37.499Z,11.59
2019-05-11T05:02:05.947Z,11.58
2019-05-11T05:04:34.391Z,11.65
2019-05-11T05:07:05.513Z,11.87
2019-05-11T05:09:36.185Z,11.96
2019-05-11T05:12:03.195Z,11.91
2019-05-11T05:14:31.645Z,11.88
2019-05-11T05:17:00.096Z,12.03
2019-05-11T05:19:28.563Z,11.79
2019-05-11T05:21:57.012Z,11.68
2019-05-11T05:24:25.473Z,11.58
2019-05-11T05:26:53.924Z,11.57
2019-05-11T05:29:22.383Z,11.43
2019-05-11T05:31:50.826Z,11.39
2019-05-11T05:34:19.293Z,11.00
2019-05-11T05:36:47.729Z,11.57
2019-05-11T05:39:16.180Z,11.64
2019-05-11T05:41:56.587Z,11.72
2019-05-11T05:44:14.803Z,11.86
2019-05-11T05:46:43.237Z,11.95
2019-05-11T05:49:11.763Z,11.95
2019-05-11T05:51:40.207Z,11.70
2019-05-11T05:54:08.723Z,11.90
2019-05-11T05:56:37.203Z,11.84
2019-05-11T05:59:05.736Z,11.90
2019-05-11T06:01:34.210Z,11.72
2019-05-11T06:04:02.690Z,11.69
2019-05-11T06:06:31.150Z,11.72
2019-05-11T06:08:59.597Z,11.85
2019-05-11T06:11:28.071Z,11.86
2019-05-11T06:13:56.586Z,11.84
2019-05-11T06:16:25.038Z,11.81
2019-05-11T06:18:53.504Z,11.71
2019-05-11T06:21:21.941Z,11.56
2019-05-11T06:23:50.394Z,11.59
2019-05-11T06:26:18.861Z,11.61
2019-05-11T06:28:47.327Z,11.60
2019-05-11T06:31:15.845Z,11.55
2019-05-11T06:33:44.303Z,11.54
2019-05-11T06:36:12.776Z,11.53
2019-05-11T06:38:41.261Z,11.58
2019-05-11T06:41:09.927Z,11.56
2019-05-11T06:43:38.435Z,11.48
2019-05-11T06:46:06.940Z,11.67
2019-05-11T06:48:35.463Z,11.68
2019-05-11T06:51:03.975Z,11.73
2019-05-11T06:53:32.450Z,11.82
2019-05-11T06:56:00.947Z,11.95
2019-05-11T06:58:29.351Z,12.03
2019-05-11T07:00:57.819Z,11.90
2019-05-11T07:03:26.268Z,12.05
2019-05-11T07:05:54.745Z,11.99
2019-05-11T07:08:23.278Z,11.79
2019-05-11T07:10:51.729Z,11.80
2019-05-11T07:13:21.897Z,11.86
2019-05-11T07:15:50.440Z,12.12
2019-05-11T07:18:19.093Z,12.30
2019-05-11T07:20:50.778Z,12.31
2019-05-11T07:23:17.849Z,12.33
2019-05-11T07:25:46.302Z,12.36
2019-05-11T07:28:14.801Z,12.22
2019-05-11T07:30:43.252Z,12.33
2019-05-11T07:33:12.226Z,12.35
2019-05-11T07:35:40.751Z,12.49
2019-05-11T07:38:09.251Z,12.51
2019-05-11T07:40:38.599Z,12.72
2019-05-11T07:43:09.839Z,12.75
2019-05-11T07:45:38.816Z,12.84
2019-05-11T07:48:08.019Z,12.94
2019-05-11T07:50:38.662Z,12.93
2019-05-11T07:53:08.158Z,12.94
2019-05-11T07:55:38.558Z,12.95
2019-05-11T07:58:08.090Z,12.97
2019-05-11T08:00:39.815Z,13.01
2019-05-11T08:03:09.014Z,13.10
2019-05-11T08:05:38.552Z,13.12
2019-05-11T08:08:08.731Z,13.15
2019-05-11T08:10:38.997Z,13.16
2019-05-11T08:13:09.179Z,13.42
2019-05-11T08:15:38.323Z,12.92
2019-05-11T08:18:08.559Z,13.71
2019-05-11T08:20:38.569Z,13.95
2019-05-11T08:23:09.081Z,14.18
2019-05-11T08:25:38.047Z,14.16
2019-05-11T08:28:11.600Z,14.08
2019-05-11T08:30:38.107Z,14.10
2019-05-11T08:33:08.674Z,14.24
2019-05-11T08:35:38.984Z,13.74
2019-05-11T08:38:08.792Z,13.96
2019-05-11T08:40:37.996Z,14.03
2019-05-11T08:43:08.777Z,14.23
2019-05-11T08:45:39.371Z,14.09
2019-05-11T08:48:08.161Z,14.01
2019-05-11T08:50:38.224Z,14.15
2019-05-11T08:53:08.598Z,14.15
2019-05-11T08:55:38.128Z,14.12
2019-05-11T08:58:07.894Z,14.05
2019-05-11T09:00:38.938Z,14.13
2019-05-11T09:03:08.559Z,14.11
2019-05-11T09:05:38.681Z,14.36
2019-05-11T09:08:08.234Z,14.14
2019-05-11T09:10:39.593Z,14.28
2019-05-11T09:13:08.033Z,14.58
2019-05-11T09:15:40.247Z,14.75
2019-05-11T09:18:08.427Z,14.97
2019-05-11T09:20:37.829Z,15.38
2019-05-11T09:23:08.174Z,15.54
2019-05-11T09:25:38.500Z,15.22
2019-05-11T09:28:08.599Z,15.08
2019-05-11T09:30:37.783Z,15.37
2019-05-11T09:33:08.430Z,15.26
2019-05-11T09:35:49.350Z,15.56
2019-05-11T09:38:08.023Z,15.90
2019-05-11T09:40:38.594Z,16.26
2019-05-11T09:43:08.520Z,16.29
2019-05-11T09:45:47.928Z,16.04
2019-05-11T09:48:08.653Z,15.88
2019-05-11T09:50:38.812Z,15.99
2019-05-11T09:53:08.536Z,16.04
2019-05-11T09:55:38.887Z,15.85
2019-05-11T09:58:08.523Z,16.23
2019-05-11T10:00:38.864Z,16.55
2019-05-11T10:03:08.232Z,16.80
2019-05-11T10:05:38.238Z,17.02
2019-05-11T10:08:07.849Z,17.04
2019-05-11T10:10:38.343Z,16.77
2019-05-11T10:13:08.059Z,16.77
2019-05-11T10:15:38.560Z,16.29
2019-05-11T10:18:08.207Z,16.25
2019-05-11T10:20:39.050Z,16.72
2019-05-11T10:23:08.413Z,17.13
2019-05-11T10:25:39.121Z,17.62
2019-05-11T10:28:08.714Z,17.28
2019-05-11T10:30:38.593Z,16.83
2019-05-11T10:33:08.276Z,16.80
2019-05-11T10:35:37.814Z,17.25
2019-05-11T10:38:08.801Z,17.78
2019-05-11T10:40:38.708Z,17.76
2019-05-11T10:43:07.926Z,17.48
2019-05-11T10:45:37.919Z,17.52
2019-05-11T10:48:08.655Z,17.74
2019-05-11T10:50:38.086Z,18.41
2019-05-11T10:53:07.987Z,19.48
2019-05-11T10:55:38.663Z,20.10
2019-05-11T10:58:08.672Z,20.48
2019-05-11T11:00:38.812Z,20.21
2019-05-11T11:03:08.496Z,21.44
2019-05-11T11:05:38.432Z,20.57
2019-05-11T11:08:08.315Z,19.18
2019-05-11T11:10:37.892Z,18.01
2019-05-11T11:13:08.328Z,18.77
2019-05-11T11:15:38.083Z,18.71
2019-05-11T11:18:08.529Z,19.24
2019-05-11T11:20:38.395Z,18.87
2019-05-11T11:23:08.798Z,18.27
2019-05-11T11:25:37.641Z,17.53
2019-05-11T11:28:08.274Z,16.92
2019-05-11T11:30:37.899Z,16.63
2019-05-11T11:33:07.968Z,16.76
2019-05-11T11:35:38.564Z,19.02
2019-05-11T11:38:08.681Z,21.30
2019-05-11T11:40:38.675Z,22.29
2019-05-11T11:43:08.669Z,21.33
2019-05-11T11:45:38.083Z,20.59
2019-05-11T11:48:08.655Z,19.46
2019-05-11T11:50:37.898Z,18.95
2019-05-11T11:53:08.382Z,18.50
2019-05-11T11:55:38.845Z,17.57
2019-05-11T11:58:08.297Z,17.22
2019-05-11T12:00:39.130Z,16.71
2019-05-11T12:03:07.989Z,16.58
2019-05-11T12:05:38.643Z,16.47
2019-05-11T12:08:08.294Z,18.15
2019-05-11T12:10:37.995Z,20.32
2019-05-11T12:13:08.462Z,21.95
2019-05-11T12:15:38.584Z,19.93
2019-05-11T12:18:08.274Z,19.17
2019-05-11T12:20:38.905Z,18.43
2019-05-11T12:23:08.783Z,18.20
2019-05-11T12:25:40.340Z,18.14
2019-05-11T12:28:08.079Z,18.13
2019-05-11T12:30:37.674Z,18.87
2019-05-11T12:33:08.196Z,19.97
2019-05-11T12:35:37.808Z,21.19
2019-05-11T12:38:07.805Z,21.16
2019-05-11T12:40:38.688Z,20.49
2019-05-11T12:43:08.199Z,19.36
2019-05-11T12:45:40.149Z,18.59
2019-05-11T12:48:09.107Z,17.87
2019-05-11T12:50:37.986Z,17.70
2019-05-11T12:53:08.010Z,17.54
2019-05-11T12:55:37.975Z,17.48
2019-05-11T12:58:08.581Z,17.64
2019-05-11T13:00:39.080Z,18.29
2019-05-11T13:03:08.049Z,19.60
2019-05-11T13:05:37.820Z,19.26
2019-05-11T13:08:07.972Z,18.77
2019-05-11T13:10:37.661Z,18.43
2019-05-11T13:13:08.682Z,18.92
2019-05-11T13:15:38.523Z,18.28
2019-05-11T13:18:08.435Z,19.09
2019-05-11T13:20:37.762Z,19.14
2019-05-11T13:23:07.998Z,19.91
2019-05-11T13:25:38.600Z,20.29
2019-05-11T13:28:08.569Z,19.41
2019-05-11T13:30:38.217Z,20.24
2019-05-11T13:33:08.519Z,20.39
2019-05-11T13:35:37.999Z,20.16
2019-05-11T13:38:08.538Z,21.24
2019-05-11T13:40:38.253Z,21.85
2019-05-11T13:43:08.285Z,21.75
2019-05-11T13:45:38.711Z,22.20
2019-05-11T13:48:08.466Z,21.06
2019-05-11T13:50:38.644Z,21.96
2019-05-11T13:53:07.776Z,22.29
2019-05-11T13:55:38.555Z,21.10
2019-05-11T13:58:08.319Z,20.19
2019-05-11T14:00:38.033Z,19.94
2019-05-11T14:03:08.369Z,19.90
2019-05-11T14:05:37.820Z,20.57
2019-05-11T14:08:08.198Z,21.09
2019-05-11T14:10:38.391Z,20.23
2019-05-11T14:13:08.785Z,20.00
2019-05-11T14:15:37.784Z,19.77
2019-05-11T14:18:09.408Z,19.01
2019-05-11T14:20:37.855Z,18.38
2019-05-11T14:23:07.754Z,18.68
2019-05-11T14:25:38.059Z,19.26
2019-05-11T14:28:08.193Z,20.28
2019-05-11T14:30:38.537Z,21.07
2019-05-11T14:33:08.719Z,21.21
2019-05-11T14:35:38.504Z,21.78
2019-05-11T14:38:08.032Z,20.90
2019-05-11T14:40:38.769Z,20.76
2019-05-11T14:43:08.437Z,20.89
2019-05-11T14:45:38.028Z,21.56
2019-05-11T14:48:22.209Z,21.34
2019-05-11T14:50:38.660Z,21.58
2019-05-11T14:53:08.593Z,21.87
2019-05-11T14:55:38.157Z,21.28
2019-05-11T14:58:08.327Z,21.35
2019-05-11T15:00:39.268Z,21.56
2019-05-11T15:03:07.899Z,21.15
2019-05-11T15:05:37.607Z,20.73
2019-05-11T15:08:08.605Z,19.59
2019-05-11T15:10:38.267Z,19.08
2019-05-11T15:13:08.039Z,18.65
2019-05-11T15:15:36.727Z,18.70
2019-05-11T15:18:05.136Z,18.28
2019-05-11T15:20:33.618Z,18.13
2019-05-11T15:23:02.071Z,18.62
2019-05-11T15:25:30.492Z,19.07
2019-05-11T15:27:58.971Z,19.66
2019-05-11T15:30:28.728Z,20.28
2019-05-11T15:32:58.476Z,19.89
2019-05-11T15:35:28.447Z,19.09
2019-05-11T15:37:58.279Z,18.74
2019-05-11T15:40:27.940Z,18.45
2019-05-11T15:42:58.648Z,18.06
2019-05-11T15:45:27.756Z,17.80
2019-05-11T15:47:58.684Z,17.61
2019-05-11T15:50:28.873Z,18.19
2019-05-11T15:52:58.218Z,18.39
2019-05-11T15:55:27.789Z,18.84
2019-05-11T15:57:56.518Z,18.47
2019-05-11T16:00:24.926Z,18.52
2019-05-11T16:02:53.365Z,18.64
2019-05-11T16:05:21.908Z,19.17
2019-05-11T16:07:50.390Z,19.19
2019-05-11T16:10:19.159Z,19.59
2019-05-11T16:12:48.556Z,19.93
2019-05-11T16:15:19.237Z,19.77
2019-05-11T16:17:48.765Z,20.09
2019-05-11T16:20:18.811Z,20.18
2019-05-11T16:22:47.997Z,20.21
2019-05-11T16:25:19.209Z,20.39
2019-05-11T16:27:47.109Z,19.65
2019-05-11T16:30:20.820Z,19.24
2019-05-11T16:32:48.944Z,19.14
2019-05-11T16:35:18.161Z,19.01
2019-05-11T16:37:48.726Z,19.18
2019-05-11T16:40:20.598Z,18.91
2019-05-11T16:42:47.908Z,19.02
2019-05-11T16:45:19.047Z,19.38
2019-05-11T16:47:48.282Z,19.06
2019-05-11T16:50:18.011Z,18.92
2019-05-11T16:52:48.148Z,18.64
2019-05-11T16:55:18.387Z,18.73
2019-05-11T16:57:48.405Z,18.79
2019-05-11T17:00:17.840Z,18.45
2019-05-11T17:02:48.682Z,18.39
2019-05-11T17:05:25.948Z,18.41
2019-05-11T17:07:48.425Z,18.59
2019-05-11T17:10:17.936Z,18.09
2019-05-11T17:12:48.500Z,17.69
2019-05-11T17:15:18.546Z,17.54
2019-05-11T17:17:48.609Z,17.48
2019-05-11T17:20:19.074Z,17.53
2019-05-11T17:22:48.470Z,17.76
2019-05-11T17:25:19.127Z,17.64
2019-05-11T17:27:48.814Z,17.36
2019-05-11T17:30:19.281Z,17.42
2019-05-11T17:32:49.249Z,17.41
2019-05-11T17:35:18.215Z,17.24
2019-05-11T17:37:48.471Z,17.29
2019-05-11T17:40:20.649Z,17.15
2019-05-11T17:42:47.971Z,17.01
2019-05-11T17:45:19.031Z,16.87
2019-05-11T17:47:47.012Z,16.80
2019-05-11T17:50:15.677Z,16.83
2019-05-11T17:52:44.120Z,16.75
2019-05-11T17:55:12.573Z,16.56
2019-05-11T17:57:41.577Z,16.42
2019-05-11T18:00:10.356Z,16.54
2019-05-11T18:02:41.224Z,16.45
2019-05-11T18:05:09.309Z,16.37
2019-05-11T18:07:38.543Z,16.35
2019-05-11T18:10:08.458Z,16.38
2019-05-11T18:12:39.113Z,16.30
2019-05-11T18:15:08.634Z,16.48
2019-05-11T18:17:37.203Z,16.34
2019-05-11T18:20:17.354Z,16.58
2019-05-11T18:22:39.379Z,16.38
2019-05-11T18:25:08.788Z,16.46
2019-05-11T18:27:38.690Z,16.48
2019-05-11T18:30:08.790Z,16.35
2019-05-11T18:32:39.621Z,16.37
2019-05-11T18:35:08.374Z,16.19
2019-05-11T18:37:38.940Z,16.22
2019-05-11T18:40:07.950Z,16.00
2019-05-11T18:42:38.259Z,15.99
2019-05-11T18:45:08.327Z,15.93
2019-05-11T18:47:38.170Z,15.73
2019-05-11T18:50:07.822Z,15.87
2019-05-11T18:52:36.248Z,15.64
2019-05-11T18:55:05.604Z,15.75
2019-05-11T18:57:34.040Z,15.68
2019-05-11T19:00:02.640Z,15.61
2019-05-11T19:02:31.091Z,15.50
2019-05-11T19:04:59.523Z,15.26
2019-05-11T19:07:28.418Z,15.32
2019-05-11T19:09:57.720Z,15.25
2019-05-11T19:12:28.340Z,15.16
2019-05-11T19:14:58.549Z,15.23
2019-05-11T19:17:28.869Z,15.13
2019-05-11T19:19:57.981Z,15.14
2019-05-11T19:22:28.722Z,15.13
2019-05-11T19:24:58.234Z,15.08
2019-05-11T19:27:28.687Z,15.00
2019-05-11T19:29:56.879Z,14.91
2019-05-11T19:32:25.312Z,14.74
2019-05-11T19:34:53.770Z,14.68
2019-05-11T19:37:22.165Z,14.72
2019-05-11T19:39:50.902Z,14.67
2019-05-11T19:42:20.997Z,14.35
2019-05-11T19:44:49.423Z,14.35
2019-05-11T19:47:18.197Z,14.42
2019-05-11T19:49:47.838Z,14.57
2019-05-11T19:52:17.764Z,14.35
2019-05-11T19:54:48.653Z,14.15
2019-05-11T19:57:17.916Z,14.03
2019-05-11T19:59:48.037Z,13.93
2019-05-11T20:02:18.634Z,13.68
2019-05-11T20:04:48.150Z,13.95
2019-05-11T20:07:18.229Z,13.78
2019-05-11T20:09:47.025Z,13.65
2019-05-11T20:12:17.874Z,13.81
2019-05-11T20:14:48.151Z,13.73
2019-05-11T20:17:18.150Z,13.67
2019-05-11T20:19:46.349Z,13.78
2019-05-11T20:22:14.764Z,13.80
2019-05-11T20:24:43.192Z,13.60
2019-05-11T20:27:11.606Z,13.46
2019-05-11T20:29:40.044Z,13.37
2019-05-11T20:32:08.558Z,13.44
2019-05-11T20:34:38.180Z,13.09
2019-05-11T20:37:07.812Z,13.25
2019-05-11T20:39:37.935Z,13.30
2019-05-11T20:42:08.583Z,13.11
2019-05-11T20:44:37.848Z,13.16
2019-05-11T20:47:06.541Z,13.06
2019-05-11T20:49:34.998Z,12.91
2019-05-11T20:52:03.423Z,12.91
2019-05-11T20:54:34.526Z,12.87
2019-05-11T20:57:02.950Z,12.83
2019-05-11T20:59:31.396Z,12.71
2019-05-11T21:01:59.812Z,12.76
2019-05-11T21:04:28.442Z,12.77
2019-05-11T21:06:58.007Z,12.90
2019-05-11T21:09:28.925Z,13.03
2019-05-11T21:11:58.784Z,12.85
2019-05-11T21:14:28.779Z,12.78
2019-05-11T21:16:58.622Z,12.66
2019-05-11T21:19:28.326Z,12.75
2019-05-11T21:21:58.993Z,12.65
2019-05-11T21:24:28.072Z,12.50
2019-05-11T21:26:58.523Z,12.69
2019-05-11T21:29:28.328Z,12.75
2019-05-11T21:31:58.986Z,12.79
2019-05-11T21:34:28.003Z,12.67
2019-05-11T21:36:56.640Z,12.46
2019-05-11T21:39:25.054Z,12.19
2019-05-11T21:41:53.557Z,12.26
2019-05-11T21:44:21.999Z,12.21
2019-05-11T21:46:50.458Z,12.26
2019-05-11T21:49:18.945Z,12.01
2019-05-11T21:51:49.389Z,12.11
2019-05-11T21:54:17.693Z,12.02
2019-05-11T21:56:48.583Z,12.15
2019-05-11T21:59:18.232Z,12.07
2019-05-11T22:01:48.489Z,12.20
2019-05-11T22:04:19.019Z,12.08
2019-05-11T22:06:48.374Z,11.94
2019-05-11T22:09:18.574Z,11.90
2019-05-11T22:11:48.669Z,12.11
2019-05-11T22:14:17.274Z,11.71
2019-05-11T22:16:47.896Z,11.51
2019-05-11T22:19:17.801Z,11.54
2019-05-11T22:21:49.455Z,11.57
2019-05-11T22:24:17.971Z,11.77
2019-05-11T22:26:46.493Z,11.62
2019-05-11T22:29:14.987Z,11.53
2019-05-11T22:31:43.450Z,11.43
2019-05-11T22:34:11.930Z,11.44
2019-05-11T22:36:40.356Z,11.55
2019-05-11T22:39:09.549Z,11.49
2019-05-11T22:41:39.639Z,11.33
2019-05-11T22:44:10.992Z,11.32
2019-05-11T22:46:38.673Z,11.38
2019-05-11T22:49:08.512Z,11.39
2019-05-11T22:51:37.148Z,11.26
2019-05-11T22:54:10.743Z,11.14
2019-05-11T22:56:37.866Z,11.20
2019-05-11T22:59:08.080Z,10.52
2019-05-11T23:01:37.898Z,11.07
2019-05-11T23:04:06.169Z,11.00
2019-05-11T23:06:34.588Z,11.13
2019-05-11T23:09:03.681Z,10.97
2019-05-11T23:11:32.110Z,10.84
2019-05-11T23:14:00.519Z,10.68
2019-05-11T23:16:28.940Z,10.60
2019-05-11T23:18:57.372Z,10.49
2019-05-11T23:21:30.074Z,10.47
2019-05-11T23:23:58.196Z,10.81
2019-05-11T23:26:28.116Z,10.88
2019-05-11T23:28:58.012Z,10.88
2019-05-11T23:31:27.833Z,10.82
2019-05-11T23:33:57.829Z,10.76
2019-05-11T23:36:28.034Z,10.78
2019-05-11T23:38:58.564Z,10.72
2019-05-11T23:41:28.791Z,10.74
2019-05-11T23:43:58.399Z,10.64
2019-05-11T23:46:28.425Z,10.63
2019-05-11T23:48:58.118Z,10.65
2019-05-11T23:51:28.242Z,10.60
2019-05-11T23:53:58.895Z,10.38
2019-05-11T23:56:28.195Z,10.28
2019-05-11T23:58:57.913Z,10.24
